sensor_id;sensor_type;location;lat;lon;timestamp;temperature;humidity
17659;DHT22;8948;51.534;8.262;2022-12-01T00:04:27;7.50;79.20
17659;DHT22;8948;51.534;8.262;2022-12-01T00:09:27;7.50;78.80
17659;DHT22;8948;51.534;8.262;2022-12-01T00:14:46;7.40;79.20
17659;DHT22;8948;51.534;8.262;2022-12-01T00:19:55;7.40;79.10
17659;DHT22;8948;51.534;8.262;2022-12-01T00:24:55;7.40;79.20
17659;DHT22;8948;51.534;8.262;2022-12-01T00:29:56;7.30;79.30
17659;DHT22;8948;51.534;8.262;2022-12-01T00:34:57;7.30;79.40
17659;DHT22;8948;51.534;8.262;2022-12-01T00:39:58;7.30;79.40
17659;DHT22;8948;51.534;8.262;2022-12-01T00:44:58;7.30;79.00
17659;DHT22;8948;51.534;8.262;2022-12-01T00:49:59;7.20;79.10
17659;DHT22;8948;51.534;8.262;2022-12-01T00:54:59;7.10;79.60
17659;DHT22;8948;51.534;8.262;2022-12-01T01:00:00;7.10;79.80
17659;DHT22;8948;51.534;8.262;2022-12-01T01:05:01;7.20;79.50
17659;DHT22;8948;51.534;8.262;2022-12-01T01:10:01;7.20;79.10
17659;DHT22;8948;51.534;8.262;2022-12-01T01:15:03;7.10;79.60
17659;DHT22;8948;51.534;8.262;2022-12-01T01:20:04;7.10;79.40
17659;DHT22;8948;51.534;8.262;2022-12-01T01:25:06;7.10;79.30
17659;DHT22;8948;51.534;8.262;2022-12-01T01:30:07;7.20;79.20
17659;DHT22;8948;51.534;8.262;2022-12-01T01:35:08;7.20;79.10
17659;DHT22;8948;51.534;8.262;2022-12-01T01:40:09;7.20;78.80
17659;DHT22;8948;51.534;8.262;2022-12-01T01:50:23;7.10;78.90
17659;DHT22;8948;51.534;8.262;2022-12-01T01:55:24;7.00;79.50
17659;DHT22;8948;51.534;8.262;2022-12-01T02:00:25;7.10;79.10
17659;DHT22;8948;51.534;8.262;2022-12-01T02:05:29;7.00;79.50
17659;DHT22;8948;51.534;8.262;2022-12-01T02:16:16;7.10;79.30
17659;DHT22;8948;51.534;8.262;2022-12-01T02:43:09;7.00;79.50
17659;DHT22;8948;51.534;8.262;2022-12-01T02:48:19;7.10;79.10
17659;DHT22;8948;51.534;8.262;2022-12-01T02:53:22;7.10;79.20
17659;DHT22;8948;51.534;8.262;2022-12-01T02:58:23;7.00;79.20
17659;DHT22;8948;51.534;8.262;2022-12-01T03:09:16;7.00;79.60
17659;DHT22;8948;51.534;8.262;2022-12-01T03:24:59;6.90;79.70
17659;DHT22;8948;51.534;8.262;2022-12-01T03:30:01;6.80;79.60
17659;DHT22;8948;51.534;8.262;2022-12-01T03:35:07;6.80;79.80
17659;DHT22;8948;51.534;8.262;2022-12-01T03:40:14;6.90;79.40
17659;DHT22;8948;51.534;8.262;2022-12-01T03:45:23;6.80;79.30
17659;DHT22;8948;51.534;8.262;2022-12-01T03:50:32;6.70;79.80
17659;DHT22;8948;51.534;8.262;2022-12-01T03:55:40;6.70;79.70
17659;DHT22;8948;51.534;8.262;2022-12-01T04:00:43;6.80;79.40
17659;DHT22;8948;51.534;8.262;2022-12-01T04:05:49;6.90;79.40
17659;DHT22;8948;51.534;8.262;2022-12-01T04:10:49;7.00;79.00
17659;DHT22;8948;51.534;8.262;2022-12-01T04:15:51;7.00;78.60
17659;DHT22;8948;51.534;8.262;2022-12-01T04:20:52;6.90;78.40
17659;DHT22;8948;51.534;8.262;2022-12-01T04:26:00;6.90;78.50
17659;DHT22;8948;51.534;8.262;2022-12-01T04:31:01;6.80;78.90
17659;DHT22;8948;51.534;8.262;2022-12-01T04:36:01;6.80;79.30
17659;DHT22;8948;51.534;8.262;2022-12-01T04:41:12;6.80;79.20
17659;DHT22;8948;51.534;8.262;2022-12-01T04:46:13;6.80;79.30
17659;DHT22;8948;51.534;8.262;2022-12-01T04:51:14;6.90;79.00
17659;DHT22;8948;51.534;8.262;2022-12-01T04:56:14;6.80;78.70
17659;DHT22;8948;51.534;8.262;2022-12-01T05:01:17;6.80;79.00
17659;DHT22;8948;51.534;8.262;2022-12-01T05:06:20;7.20;80.40
17659;DHT22;8948;51.534;8.262;2022-12-01T05:11:22;7.60;81.60
17659;DHT22;8948;51.534;8.262;2022-12-01T05:16:29;7.60;80.40
17659;DHT22;8948;51.534;8.262;2022-12-01T05:21:31;7.70;78.80
17659;DHT22;8948;51.534;8.262;2022-12-01T05:26:31;7.60;77.80
17659;DHT22;8948;51.534;8.262;2022-12-01T05:31:32;7.50;77.20
17659;DHT22;8948;51.534;8.262;2022-12-01T05:36:33;7.30;77.40
17659;DHT22;8948;51.534;8.262;2022-12-01T05:41:33;7.10;77.50
17659;DHT22;8948;51.534;8.262;2022-12-01T05:46:34;7.00;78.20
17659;DHT22;8948;51.534;8.262;2022-12-01T05:51:34;6.90;78.50
17659;DHT22;8948;51.534;8.262;2022-12-01T05:56:35;6.80;78.80
17659;DHT22;8948;51.534;8.262;2022-12-01T06:01:35;6.80;78.50
17659;DHT22;8948;51.534;8.262;2022-12-01T06:06:36;6.70;79.00
17659;DHT22;8948;51.534;8.262;2022-12-01T06:11:36;6.70;79.30
17659;DHT22;8948;51.534;8.262;2022-12-01T06:16:37;6.70;79.00
17659;DHT22;8948;51.534;8.262;2022-12-01T06:21:37;6.70;78.80
17659;DHT22;8948;51.534;8.262;2022-12-01T06:26:38;6.70;78.80
17659;DHT22;8948;51.534;8.262;2022-12-01T06:31:39;6.60;79.00
17659;DHT22;8948;51.534;8.262;2022-12-01T06:36:39;6.70;78.90
17659;DHT22;8948;51.534;8.262;2022-12-01T06:41:40;6.70;78.50
17659;DHT22;8948;51.534;8.262;2022-12-01T06:46:41;6.60;79.00
17659;DHT22;8948;51.534;8.262;2022-12-01T06:51:41;6.60;79.00
17659;DHT22;8948;51.534;8.262;2022-12-01T06:56:42;6.60;79.10
17659;DHT22;8948;51.534;8.262;2022-12-01T07:01:43;6.60;79.40
17659;DHT22;8948;51.534;8.262;2022-12-01T07:06:43;6.80;79.90
17659;DHT22;8948;51.534;8.262;2022-12-01T07:11:44;6.80;78.60
17659;DHT22;8948;51.534;8.262;2022-12-01T07:16:44;6.80;79.60
17659;DHT22;8948;51.534;8.262;2022-12-01T07:21:45;6.80;81.20
17659;DHT22;8948;51.534;8.262;2022-12-01T07:26:46;6.70;78.80
17659;DHT22;8948;51.534;8.262;2022-12-01T07:31:47;6.80;78.30
17659;DHT22;8948;51.534;8.262;2022-12-01T07:36:48;6.70;78.20
17659;DHT22;8948;51.534;8.262;2022-12-01T07:41:48;6.60;78.40
17659;DHT22;8948;51.534;8.262;2022-12-01T07:46:49;6.60;78.20
17659;DHT22;8948;51.534;8.262;2022-12-01T07:51:49;6.60;77.80
17659;DHT22;8948;51.534;8.262;2022-12-01T07:56:50;6.50;77.60
17659;DHT22;8948;51.534;8.262;2022-12-01T08:01:50;6.40;77.80
17659;DHT22;8948;51.534;8.262;2022-12-01T08:06:51;6.30;77.90
17659;DHT22;8948;51.534;8.262;2022-12-01T08:11:51;6.30;77.20
17659;DHT22;8948;51.534;8.262;2022-12-01T08:16:52;6.30;76.60
17659;DHT22;8948;51.534;8.262;2022-12-01T08:21:52;6.30;75.60
17659;DHT22;8948;51.534;8.262;2022-12-01T08:26:53;6.20;75.40
17659;DHT22;8948;51.534;8.262;2022-12-01T08:31:56;6.20;75.50
17659;DHT22;8948;51.534;8.262;2022-12-01T08:36:57;6.20;75.40
17659;DHT22;8948;51.534;8.262;2022-12-01T08:41:57;6.20;75.90
17659;DHT22;8948;51.534;8.262;2022-12-01T08:46:58;6.10;75.90
17659;DHT22;8948;51.534;8.262;2022-12-01T08:51:59;6.20;75.90
17659;DHT22;8948;51.534;8.262;2022-12-01T08:56:59;6.40;76.10
17659;DHT22;8948;51.534;8.262;2022-12-01T09:02:00;6.50;75.80
17659;DHT22;8948;51.534;8.262;2022-12-01T09:07:00;6.50;75.40
17659;DHT22;8948;51.534;8.262;2022-12-01T09:12:01;6.40;75.70
17659;DHT22;8948;51.534;8.262;2022-12-01T09:17:02;6.40;75.70
17659;DHT22;8948;51.534;8.262;2022-12-01T09:22:03;6.50;75.50
17659;DHT22;8948;51.534;8.262;2022-12-01T09:27:03;6.50;75.40
17659;DHT22;8948;51.534;8.262;2022-12-01T09:32:04;6.60;75.50
17659;DHT22;8948;51.534;8.262;2022-12-01T09:37:05;6.60;75.20
17659;DHT22;8948;51.534;8.262;2022-12-01T09:42:11;6.60;75.40
17659;DHT22;8948;51.534;8.262;2022-12-01T09:47:17;6.70;75.10
17659;DHT22;8948;51.534;8.262;2022-12-01T09:52:21;6.70;74.60
17659;DHT22;8948;51.534;8.262;2022-12-01T09:57:35;6.60;74.90
17659;DHT22;8948;51.534;8.262;2022-12-01T10:02:51;6.50;75.20
17659;DHT22;8948;51.534;8.262;2022-12-01T10:07:57;6.40;75.30
17659;DHT22;8948;51.534;8.262;2022-12-01T10:12:59;6.60;75.20
17659;DHT22;8948;51.534;8.262;2022-12-01T10:18:04;6.50;75.10
17659;DHT22;8948;51.534;8.262;2022-12-01T10:23:40;6.50;75.80
17659;DHT22;8948;51.534;8.262;2022-12-01T10:34:06;6.70;75.70
17659;DHT22;8948;51.534;8.262;2022-12-01T10:39:20;6.80;75.80
17659;DHT22;8948;51.534;8.262;2022-12-01T10:44:23;6.80;74.90
17659;DHT22;8948;51.534;8.262;2022-12-01T10:49:38;6.70;75.10
17659;DHT22;8948;51.534;8.262;2022-12-01T10:54:40;6.60;75.70
17659;DHT22;8948;51.534;8.262;2022-12-01T10:59:54;6.60;75.40
17659;DHT22;8948;51.534;8.262;2022-12-01T11:05:00;6.60;75.40
17659;DHT22;8948;51.534;8.262;2022-12-01T11:15:03;6.80;75.00
17659;DHT22;8948;51.534;8.262;2022-12-01T11:20:43;6.90;75.00
17659;DHT22;8948;51.534;8.262;2022-12-01T11:26:00;6.90;75.40
17659;DHT22;8948;51.534;8.262;2022-12-01T11:31:07;7.00;74.20
17659;DHT22;8948;51.534;8.262;2022-12-01T11:36:08;7.00;74.20
17659;DHT22;8948;51.534;8.262;2022-12-01T11:41:25;7.10;74.30
17659;DHT22;8948;51.534;8.262;2022-12-01T11:46:38;7.10;74.00
17659;DHT22;8948;51.534;8.262;2022-12-01T11:51:40;6.90;74.00
17659;DHT22;8948;51.534;8.262;2022-12-01T11:56:42;6.80;74.10
17659;DHT22;8948;51.534;8.262;2022-12-01T12:23:21;6.90;74.30
17659;DHT22;8948;51.534;8.262;2022-12-01T12:28:31;6.90;74.10
17659;DHT22;8948;51.534;8.262;2022-12-01T12:33:54;7.00;74.00
17659;DHT22;8948;51.534;8.262;2022-12-01T12:39:06;6.90;73.70
17659;DHT22;8948;51.534;8.262;2022-12-01T12:49:57;6.80;73.70
17659;DHT22;8948;51.534;8.262;2022-12-01T13:00:19;6.60;73.60
17659;DHT22;8948;51.534;8.262;2022-12-01T13:05:32;6.60;75.40
17659;DHT22;8948;51.534;8.262;2022-12-01T13:15:59;6.50;73.20
17659;DHT22;8948;51.534;8.262;2022-12-01T13:21:03;6.50;73.50
17659;DHT22;8948;51.534;8.262;2022-12-01T13:26:06;6.50;72.70
17659;DHT22;8948;51.534;8.262;2022-12-01T13:31:10;6.60;72.80
17659;DHT22;8948;51.534;8.262;2022-12-01T13:36:12;6.50;73.30
17659;DHT22;8948;51.534;8.262;2022-12-01T13:57:25;6.20;72.90
17659;DHT22;8948;51.534;8.262;2022-12-01T14:02:32;6.10;72.70
17659;DHT22;8948;51.534;8.262;2022-12-01T14:07:37;6.10;72.90
17659;DHT22;8948;51.534;8.262;2022-12-01T14:12:38;6.00;72.50
17659;DHT22;8948;51.534;8.262;2022-12-01T14:17:41;6.00;72.70
17659;DHT22;8948;51.534;8.262;2022-12-01T14:22:45;6.00;72.50
17659;DHT22;8948;51.534;8.262;2022-12-01T14:27:53;5.90;72.40
17659;DHT22;8948;51.534;8.262;2022-12-01T14:38:33;5.90;72.40
17659;DHT22;8948;51.534;8.262;2022-12-01T14:43:34;5.90;72.40
17659;DHT22;8948;51.534;8.262;2022-12-01T14:48:54;5.90;72.40
17659;DHT22;8948;51.534;8.262;2022-12-01T14:53:56;5.80;72.80
17659;DHT22;8948;51.534;8.262;2022-12-01T14:59:00;5.70;72.90
17659;DHT22;8948;51.534;8.262;2022-12-01T15:04:03;5.80;72.90
17659;DHT22;8948;51.534;8.262;2022-12-01T15:09:08;5.90;72.70
17659;DHT22;8948;51.534;8.262;2022-12-01T15:15:12;5.90;72.70
17659;DHT22;8948;51.534;8.262;2022-12-01T15:19:40;5.70;73.30
17659;DHT22;8948;51.534;8.262;2022-12-01T15:24:43;5.60;73.70
17659;DHT22;8948;51.534;8.262;2022-12-01T15:29:44;5.60;74.20
17659;DHT22;8948;51.534;8.262;2022-12-01T15:34:48;5.50;74.80
17659;DHT22;8948;51.534;8.262;2022-12-01T15:39:58;5.60;74.80
17659;DHT22;8948;51.534;8.262;2022-12-01T15:45:16;5.50;74.80
17659;DHT22;8948;51.534;8.262;2022-12-01T15:50:35;5.50;75.00
17659;DHT22;8948;51.534;8.262;2022-12-01T15:55:37;5.50;75.10
17659;DHT22;8948;51.534;8.262;2022-12-01T16:00:39;5.50;74.90
17659;DHT22;8948;51.534;8.262;2022-12-01T16:05:43;5.60;74.90
17659;DHT22;8948;51.534;8.262;2022-12-01T16:10:44;5.60;74.80
17659;DHT22;8948;51.534;8.262;2022-12-01T16:15:44;5.60;74.40
17659;DHT22;8948;51.534;8.262;2022-12-01T16:20:45;5.50;74.70
17659;DHT22;8948;51.534;8.262;2022-12-01T16:25:46;5.60;74.60
17659;DHT22;8948;51.534;8.262;2022-12-01T16:30:48;5.50;74.50
17659;DHT22;8948;51.534;8.262;2022-12-01T16:35:49;5.50;74.70
17659;DHT22;8948;51.534;8.262;2022-12-01T16:41:00;5.40;74.70
17659;DHT22;8948;51.534;8.262;2022-12-01T16:46:02;5.40;75.00
17659;DHT22;8948;51.534;8.262;2022-12-01T16:51:06;5.40;74.80
17659;DHT22;8948;51.534;8.262;2022-12-01T16:56:11;5.40;74.70
17659;DHT22;8948;51.534;8.262;2022-12-01T17:01:12;5.30;74.70
17659;DHT22;8948;51.534;8.262;2022-12-01T17:06:17;5.30;74.10
17659;DHT22;8948;51.534;8.262;2022-12-01T17:11:17;5.20;74.10
17659;DHT22;8948;51.534;8.262;2022-12-01T17:16:18;5.20;74.30
17659;DHT22;8948;51.534;8.262;2022-12-01T17:21:19;5.30;73.00
17659;DHT22;8948;51.534;8.262;2022-12-01T17:26:20;5.20;73.10
17659;DHT22;8948;51.534;8.262;2022-12-01T17:31:21;5.30;73.40
17659;DHT22;8948;51.534;8.262;2022-12-01T17:36:21;5.40;73.00
17659;DHT22;8948;51.534;8.262;2022-12-01T17:41:22;5.30;73.50
17659;DHT22;8948;51.534;8.262;2022-12-01T17:46:24;5.50;73.70
17659;DHT22;8948;51.534;8.262;2022-12-01T17:51:25;5.50;73.30
17659;DHT22;8948;51.534;8.262;2022-12-01T17:56:26;5.30;72.80
17659;DHT22;8948;51.534;8.262;2022-12-01T18:01:27;5.10;72.40
17659;DHT22;8948;51.534;8.262;2022-12-01T18:06:27;5.00;72.50
17659;DHT22;8948;51.534;8.262;2022-12-01T18:11:28;4.80;72.80
17659;DHT22;8948;51.534;8.262;2022-12-01T18:16:30;4.80;72.80
17659;DHT22;8948;51.534;8.262;2022-12-01T18:21:31;4.70;72.60
17659;DHT22;8948;51.534;8.262;2022-12-01T18:26:32;4.60;71.20
17659;DHT22;8948;51.534;8.262;2022-12-01T18:31:34;4.50;72.00
17659;DHT22;8948;51.534;8.262;2022-12-01T18:36:38;4.70;71.50
17659;DHT22;8948;51.534;8.262;2022-12-01T18:41:39;4.70;71.50
17659;DHT22;8948;51.534;8.262;2022-12-01T18:46:40;4.60;71.20
17659;DHT22;8948;51.534;8.262;2022-12-01T18:51:40;4.70;71.10
17659;DHT22;8948;51.534;8.262;2022-12-01T18:56:41;4.80;71.00
17659;DHT22;8948;51.534;8.262;2022-12-01T19:01:42;4.80;70.30
17659;DHT22;8948;51.534;8.262;2022-12-01T19:06:44;4.60;70.80
17659;DHT22;8948;51.534;8.262;2022-12-01T19:11:45;4.70;71.00
17659;DHT22;8948;51.534;8.262;2022-12-01T19:16:46;4.70;71.00
17659;DHT22;8948;51.534;8.262;2022-12-01T19:21:47;4.80;70.80
17659;DHT22;8948;51.534;8.262;2022-12-01T19:26:49;4.80;70.70
17659;DHT22;8948;51.534;8.262;2022-12-01T19:31:49;4.90;70.40
17659;DHT22;8948;51.534;8.262;2022-12-01T19:36:50;4.90;70.60
17659;DHT22;8948;51.534;8.262;2022-12-01T19:41:53;5.10;70.20
17659;DHT22;8948;51.534;8.262;2022-12-01T19:46:55;5.20;70.10
17659;DHT22;8948;51.534;8.262;2022-12-01T19:51:56;5.20;70.00
17659;DHT22;8948;51.534;8.262;2022-12-01T19:56:57;5.30;69.80
17659;DHT22;8948;51.534;8.262;2022-12-01T20:01:57;5.30;69.60
17659;DHT22;8948;51.534;8.262;2022-12-01T20:06:58;5.30;69.90
17659;DHT22;8948;51.534;8.262;2022-12-01T20:11:58;5.30;70.50
17659;DHT22;8948;51.534;8.262;2022-12-01T20:16:59;5.30;70.60
17659;DHT22;8948;51.534;8.262;2022-12-01T20:21:59;5.30;70.60
17659;DHT22;8948;51.534;8.262;2022-12-01T20:27:00;5.10;71.00
17659;DHT22;8948;51.534;8.262;2022-12-01T20:32:01;5.10;70.50
17659;DHT22;8948;51.534;8.262;2022-12-01T20:37:02;5.00;71.60
17659;DHT22;8948;51.534;8.262;2022-12-01T20:42:04;5.00;70.80
17659;DHT22;8948;51.534;8.262;2022-12-01T20:47:05;4.70;71.80
17659;DHT22;8948;51.534;8.262;2022-12-01T20:52:05;4.60;72.30
17659;DHT22;8948;51.534;8.262;2022-12-01T20:57:06;4.70;71.70
17659;DHT22;8948;51.534;8.262;2022-12-01T21:02:08;4.70;71.70
17659;DHT22;8948;51.534;8.262;2022-12-01T21:07:09;4.80;71.20
17659;DHT22;8948;51.534;8.262;2022-12-01T21:12:14;4.70;71.80
17659;DHT22;8948;51.534;8.262;2022-12-01T21:17:35;4.70;72.10
17659;DHT22;8948;51.534;8.262;2022-12-01T21:22:36;4.70;72.00
17659;DHT22;8948;51.534;8.262;2022-12-01T21:27:37;4.70;72.10
17659;DHT22;8948;51.534;8.262;2022-12-01T21:32:37;4.70;72.10
17659;DHT22;8948;51.534;8.262;2022-12-01T21:37:41;4.70;71.90
17659;DHT22;8948;51.534;8.262;2022-12-01T21:42:42;4.60;72.50
17659;DHT22;8948;51.534;8.262;2022-12-01T21:47:42;4.70;72.40
17659;DHT22;8948;51.534;8.262;2022-12-01T21:52:43;4.70;72.60
17659;DHT22;8948;51.534;8.262;2022-12-01T21:57:45;4.70;72.40
17659;DHT22;8948;51.534;8.262;2022-12-01T22:13:12;4.70;72.30
17659;DHT22;8948;51.534;8.262;2022-12-01T22:18:23;4.70;72.70
17659;DHT22;8948;51.534;8.262;2022-12-01T22:23:31;4.70;72.60
17659;DHT22;8948;51.534;8.262;2022-12-01T22:28:33;4.80;72.60
17659;DHT22;8948;51.534;8.262;2022-12-01T22:33:33;4.80;72.40
17659;DHT22;8948;51.534;8.262;2022-12-01T22:38:36;4.80;72.80
17659;DHT22;8948;51.534;8.262;2022-12-01T22:48:44;4.60;73.20
17659;DHT22;8948;51.534;8.262;2022-12-01T22:53:45;4.60;73.10
17659;DHT22;8948;51.534;8.262;2022-12-01T22:58:46;4.50;73.60
17659;DHT22;8948;51.534;8.262;2022-12-01T23:03:47;4.50;73.60
17659;DHT22;8948;51.534;8.262;2022-12-01T23:08:48;4.50;73.90
17659;DHT22;8948;51.534;8.262;2022-12-01T23:13:48;4.50;74.20
17659;DHT22;8948;51.534;8.262;2022-12-01T23:18:49;4.50;74.30
17659;DHT22;8948;51.534;8.262;2022-12-01T23:23:50;4.50;74.40
17659;DHT22;8948;51.534;8.262;2022-12-01T23:28:50;4.70;73.70
17659;DHT22;8948;51.534;8.262;2022-12-01T23:33:51;4.50;74.70
17659;DHT22;8948;51.534;8.262;2022-12-01T23:38:55;4.60;74.50
17659;DHT22;8948;51.534;8.262;2022-12-01T23:43:59;4.50;74.30
17659;DHT22;8948;51.534;8.262;2022-12-01T23:49:03;4.50;74.80
17659;DHT22;8948;51.534;8.262;2022-12-01T23:54:25;4.50;75.00
17659;DHT22;8948;51.534;8.262;2022-12-01T23:59:28;4.60;75.10
